sensor_id;sensor_type;location;lat;lon;timestamp;pressure;altitude;pressure_sealevel;temperature;humidity
7990;BME280;4040;42.848;23.034;2023-07-22T00:03:38;94856.22;;;19.56;100.00
7990;BME280;4040;42.848;23.034;2023-07-22T00:13:50;94846.19;;;19.71;100.00
7990;BME280;4040;42.848;23.034;2023-07-22T00:19:39;94864.94;;;19.87;100.00
7990;BME280;4040;42.848;23.034;2023-07-22T00:25:27;94897.06;;;20.37;100.00
7990;BME280;4040;42.848;23.034;2023-07-22T00:31:17;94898.19;;;20.12;100.00
7990;BME280;4040;42.848;23.034;2023-07-22T00:37:06;94877.75;;;19.45;100.00
7990;BME280;4040;42.848;23.034;2023-07-22T00:42:55;94883.53;;;19.38;100.00
7990;BME280;4040;42.848;23.034;2023-07-22T00:48:46;94875.03;;;19.54;100.00
7990;BME280;4040;42.848;23.034;2023-07-22T00:51:13;94882.78;;;19.55;100.00
7990;BME280;4040;42.848;23.034;2023-07-22T00:57:02;94903.25;;;19.69;100.00
7990;BME280;4040;42.848;23.034;2023-07-22T01:02:52;94881.56;;;19.47;100.00
7990;BME280;4040;42.848;23.034;2023-07-22T01:05:21;94883.22;;;19.45;100.00
7990;BME280;4040;42.848;23.034;2023-07-22T01:11:10;94881.25;;;19.36;100.00
7990;BME280;4040;42.848;23.034;2023-07-22T01:17:00;94883.84;;;19.31;100.00
7990;BME280;4040;42.848;23.034;2023-07-22T01:22:52;94863.34;;;19.35;100.00
7990;BME280;4040;42.848;23.034;2023-07-22T01:28:40;94852.28;;;19.30;100.00
7990;BME280;4040;42.848;23.034;2023-07-22T01:34:29;94866.53;;;19.34;100.00
7990;BME280;4040;42.848;23.034;2023-07-22T01:40:20;94844.25;;;19.35;100.00
7990;BME280;4040;42.848;23.034;2023-07-22T01:46:10;94848.97;;;19.35;100.00
7990;BME280;4040;42.848;23.034;2023-07-22T01:51:59;94813.13;;;19.06;100.00
7990;BME280;4040;42.848;23.034;2023-07-22T01:57:49;94819.66;;;19.44;100.00
7990;BME280;4040;42.848;23.034;2023-07-22T02:03:38;94839.84;;;19.38;100.00
7990;BME280;4040;42.848;23.034;2023-07-22T02:09:27;94838.31;;;19.19;100.00
7990;BME280;4040;42.848;23.034;2023-07-22T02:11:54;94838.31;;;19.19;100.00
7990;BME280;4040;42.848;23.034;2023-07-22T02:17:44;94836.59;;;18.67;100.00
7990;BME280;4040;42.848;23.034;2023-07-22T02:23:33;94848.84;;;18.54;100.00
7990;BME280;4040;42.848;23.034;2023-07-22T02:26:01;94858.84;;;18.57;100.00
7990;BME280;4040;42.848;23.034;2023-07-22T02:31:49;94863.00;;;18.88;100.00
7990;BME280;4040;42.848;23.034;2023-07-22T02:37:40;94864.28;;;18.57;100.00
7990;BME280;4040;42.848;23.034;2023-07-22T02:43:28;94856.94;;;18.36;100.00
7990;BME280;4040;42.848;23.034;2023-07-22T02:49:17;94851.88;;;18.56;100.00
7990;BME280;4040;42.848;23.034;2023-07-22T02:51:44;94860.34;;;18.58;100.00
7990;BME280;4040;42.848;23.034;2023-07-22T02:57:34;94859.09;;;18.50;100.00
7990;BME280;4040;42.848;23.034;2023-07-22T03:03:23;94864.22;;;18.39;100.00
7990;BME280;4040;42.848;23.034;2023-07-22T03:05:51;94863.34;;;18.51;100.00
7990;BME280;4040;42.848;23.034;2023-07-22T03:15:13;94874.69;;;19.07;100.00
7990;BME280;4040;42.848;23.034;2023-07-22T03:21:01;94876.81;;;19.03;100.00
7990;BME280;4040;42.848;23.034;2023-07-22T03:26:51;94888.06;;;19.05;100.00
7990;BME280;4040;42.848;23.034;2023-07-22T03:32:41;94892.75;;;18.47;100.00
7990;BME280;4040;42.848;23.034;2023-07-22T03:38:30;94893.16;;;18.36;100.00
7990;BME280;4040;42.848;23.034;2023-07-22T03:44:19;94900.94;;;18.47;100.00
7990;BME280;4040;42.848;23.034;2023-07-22T03:50:09;94894.91;;;18.52;100.00
7990;BME280;4040;42.848;23.034;2023-07-22T03:55:58;94903.38;;;18.54;100.00
7990;BME280;4040;42.848;23.034;2023-07-22T04:01:47;94903.41;;;18.72;100.00
7990;BME280;4040;42.848;23.034;2023-07-22T04:07:37;94915.50;;;19.01;100.00
7990;BME280;4040;42.848;23.034;2023-07-22T04:17:07;94911.75;;;19.26;100.00
7990;BME280;4040;42.848;23.034;2023-07-22T04:22:57;94916.63;;;19.58;100.00
7990;BME280;4040;42.848;23.034;2023-07-22T04:28:46;94911.75;;;19.89;100.00
7990;BME280;4040;42.848;23.034;2023-07-22T04:31:13;94917.50;;;20.00;100.00
7990;BME280;4040;42.848;23.034;2023-07-22T04:37:02;94924.25;;;20.40;100.00
7990;BME280;4040;42.848;23.034;2023-07-22T04:42:53;94939.19;;;21.74;100.00
7990;BME280;4040;42.848;23.034;2023-07-22T04:48:41;94936.72;;;22.72;100.00
7990;BME280;4040;42.848;23.034;2023-07-22T04:54:30;94930.91;;;23.19;100.00
7990;BME280;4040;42.848;23.034;2023-07-22T05:00:30;94935.78;;;23.84;100.00
7990;BME280;4040;42.848;23.034;2023-07-22T05:06:19;94931.59;;;25.07;100.00
7990;BME280;4040;42.848;23.034;2023-07-22T05:12:08;94917.41;;;27.18;100.00
7990;BME280;4040;42.848;23.034;2023-07-22T05:17:58;94939.13;;;28.28;92.32
7990;BME280;4040;42.848;23.034;2023-07-22T05:23:47;94926.28;;;27.85;92.36
7990;BME280;4040;42.848;23.034;2023-07-22T05:29:35;94931.88;;;28.60;91.06
7990;BME280;4040;42.848;23.034;2023-07-22T05:35:25;94932.81;;;29.56;86.77
7990;BME280;4040;42.848;23.034;2023-07-22T05:41:14;94936.47;;;31.70;76.38
7990;BME280;4040;42.848;23.034;2023-07-22T05:47:03;94957.44;;;32.23;72.94
7990;BME280;4040;42.848;23.034;2023-07-22T05:52:54;94964.94;;;32.15;69.00
7990;BME280;4040;42.848;23.034;2023-07-22T05:58:42;94950.41;;;33.50;65.08
7990;BME280;4040;42.848;23.034;2023-07-22T06:04:31;94966.50;;;34.20;60.82
7990;BME280;4040;42.848;23.034;2023-07-22T06:10:22;94979.13;;;35.07;59.60
7990;BME280;4040;42.848;23.034;2023-07-22T06:20:32;94973.97;;;35.56;56.78
7990;BME280;4040;42.848;23.034;2023-07-22T06:26:22;94975.28;;;36.62;54.23
7990;BME280;4040;42.848;23.034;2023-07-22T06:32:11;94981.78;;;37.36;49.19
7990;BME280;4040;42.848;23.034;2023-07-22T06:38:00;94951.47;;;37.02;48.38
7990;BME280;4040;42.848;23.034;2023-07-22T06:43:50;94963.66;;;38.03;48.53
7990;BME280;4040;42.848;23.034;2023-07-22T06:49:39;94957.00;;;36.46;47.56
7990;BME280;4040;42.848;23.034;2023-07-22T06:55:27;94948.41;;;38.06;47.52
7990;BME280;4040;42.848;23.034;2023-07-22T07:01:18;94961.47;;;39.31;43.67
7990;BME280;4040;42.848;23.034;2023-07-22T07:07:07;94958.81;;;39.33;43.45
7990;BME280;4040;42.848;23.034;2023-07-22T07:12:55;94951.28;;;39.81;40.83
7990;BME280;4040;42.848;23.034;2023-07-22T07:23:09;94940.94;;;41.68;39.91
7990;BME280;4040;42.848;23.034;2023-07-22T07:28:57;94934.50;;;42.40;37.46
7990;BME280;4040;42.848;23.034;2023-07-22T07:34:46;94936.09;;;39.22;39.63
7990;BME280;4040;42.848;23.034;2023-07-22T07:40:36;94920.53;;;38.51;41.27
7990;BME280;4040;42.848;23.034;2023-07-22T07:46:26;94910.53;;;38.07;42.49
7990;BME280;4040;42.848;23.034;2023-07-22T07:52:15;94914.22;;;40.32;41.17
7990;BME280;4040;42.848;23.034;2023-07-22T07:58:06;94923.56;;;40.25;38.23
7990;BME280;4040;42.848;23.034;2023-07-22T08:00:33;94926.63;;;41.05;40.01
7990;BME280;4040;42.848;23.034;2023-07-22T08:06:21;94924.25;;;40.92;36.24
7990;BME280;4040;42.848;23.034;2023-07-22T08:12:10;94919.84;;;39.49;37.87
7990;BME280;4040;42.848;23.034;2023-07-22T08:18:01;94908.19;;;41.65;35.44
7990;BME280;4040;42.848;23.034;2023-07-22T08:23:51;94903.56;;;42.53;34.86
7990;BME280;4040;42.848;23.034;2023-07-22T08:29:39;94890.94;;;42.66;34.23
7990;BME280;4040;42.848;23.034;2023-07-22T08:35:30;94880.41;;;40.82;37.58
7990;BME280;4040;42.848;23.034;2023-07-22T08:41:18;94871.56;;;42.51;35.26
7990;BME280;4040;42.848;23.034;2023-07-22T08:47:14;94876.63;;;43.42;36.70
7990;BME280;4040;42.848;23.034;2023-07-22T08:53:05;94865.50;;;44.29;33.78
7990;BME280;4040;42.848;23.034;2023-07-22T08:55:32;94867.13;;;43.15;34.31
7990;BME280;4040;42.848;23.034;2023-07-22T09:01:22;94873.63;;;43.86;36.22
7990;BME280;4040;42.848;23.034;2023-07-22T09:07:12;94865.50;;;42.89;35.78
7990;BME280;4040;42.848;23.034;2023-07-22T09:13:05;94866.69;;;41.37;37.72
7990;BME280;4040;42.848;23.034;2023-07-22T09:22:16;94856.25;;;42.12;35.17
7990;BME280;4040;42.848;23.034;2023-07-22T09:28:06;94834.63;;;42.07;37.87
7990;BME280;4040;42.848;23.034;2023-07-22T09:33:54;94837.59;;;42.74;34.08
7990;BME280;4040;42.848;23.034;2023-07-22T09:39:46;94835.09;;;42.57;36.74
7990;BME280;4040;42.848;23.034;2023-07-22T09:45:38;94836.53;;;43.71;33.32
7990;BME280;4040;42.848;23.034;2023-07-22T09:51:33;94822.56;;;43.75;33.01
7990;BME280;4040;42.848;23.034;2023-07-22T09:57:22;94827.72;;;42.52;35.13
7990;BME280;4040;42.848;23.034;2023-07-22T10:03:14;94841.03;;;44.98;31.31
7990;BME280;4040;42.848;23.034;2023-07-22T10:09:05;94825.88;;;45.07;32.84
7990;BME280;4040;42.848;23.034;2023-07-22T10:14:55;94810.91;;;45.59;31.43
7990;BME280;4040;42.848;23.034;2023-07-22T10:20:48;94814.41;;;46.42;30.64
7990;BME280;4040;42.848;23.034;2023-07-22T10:26:39;94809.16;;;47.43;29.90
7990;BME280;4040;42.848;23.034;2023-07-22T10:32:33;94804.19;;;45.81;28.91
7990;BME280;4040;42.848;23.034;2023-07-22T10:38:25;94798.28;;;46.78;31.47
7990;BME280;4040;42.848;23.034;2023-07-22T10:44:14;94785.91;;;46.42;30.09
7990;BME280;4040;42.848;23.034;2023-07-22T10:50:07;94787.31;;;44.28;32.41
7990;BME280;4040;42.848;23.034;2023-07-22T10:56:13;94782.81;;;42.25;34.97
7990;BME280;4040;42.848;23.034;2023-07-22T11:02:07;94774.38;;;40.31;35.65
7990;BME280;4040;42.848;23.034;2023-07-22T11:08:03;94782.84;;;39.17;37.93
7990;BME280;4040;42.848;23.034;2023-07-22T11:13:53;94774.44;;;38.81;39.11
7990;BME280;4040;42.848;23.034;2023-07-22T11:19:41;94772.38;;;37.86;40.87
7990;BME280;4040;42.848;23.034;2023-07-22T11:25:33;94751.03;;;37.83;39.55
7990;BME280;4040;42.848;23.034;2023-07-22T11:31:30;94759.97;;;37.38;38.87
7990;BME280;4040;42.848;23.034;2023-07-22T11:37:19;94756.75;;;36.83;40.09
7990;BME280;4040;42.848;23.034;2023-07-22T11:39:46;94750.38;;;37.07;39.84
7990;BME280;4040;42.848;23.034;2023-07-22T11:45:38;94748.16;;;37.39;39.84
7990;BME280;4040;42.848;23.034;2023-07-22T11:51:28;94737.09;;;37.58;40.29
7990;BME280;4040;42.848;23.034;2023-07-22T11:57:20;94741.78;;;37.05;40.49
7990;BME280;4040;42.848;23.034;2023-07-22T12:03:09;94744.22;;;36.35;40.92
7990;BME280;4040;42.848;23.034;2023-07-22T12:09:00;94742.66;;;35.77;40.63
7990;BME280;4040;42.848;23.034;2023-07-22T12:14:49;94736.16;;;35.60;41.72
7990;BME280;4040;42.848;23.034;2023-07-22T12:24:07;94720.31;;;35.55;42.65
7990;BME280;4040;42.848;23.034;2023-07-22T12:29:56;94704.59;;;35.59;41.54
7990;BME280;4040;42.848;23.034;2023-07-22T12:35:45;94718.44;;;35.65;40.99
7990;BME280;4040;42.848;23.034;2023-07-22T12:41:34;94711.63;;;35.75;41.73
7990;BME280;4040;42.848;23.034;2023-07-22T12:47:23;94708.31;;;35.69;39.67
7990;BME280;4040;42.848;23.034;2023-07-22T12:53:12;94697.59;;;35.36;39.80
7990;BME280;4040;42.848;23.034;2023-07-22T12:59:02;94699.88;;;35.15;40.24
7990;BME280;4040;42.848;23.034;2023-07-22T13:04:51;94698.38;;;35.29;39.22
7990;BME280;4040;42.848;23.034;2023-07-22T13:10:40;94676.00;;;35.14;37.59
7990;BME280;4040;42.848;23.034;2023-07-22T13:16:33;94686.06;;;35.32;39.17
7990;BME280;4040;42.848;23.034;2023-07-22T13:25:53;94674.44;;;35.43;37.81
7990;BME280;4040;42.848;23.034;2023-07-22T13:31:43;94673.03;;;35.59;38.54
7990;BME280;4040;42.848;23.034;2023-07-22T13:37:32;94664.34;;;35.40;39.45
7990;BME280;4040;42.848;23.034;2023-07-22T13:43:23;94658.78;;;35.33;38.02
7990;BME280;4040;42.848;23.034;2023-07-22T13:49:22;94654.66;;;35.41;37.59
7990;BME280;4040;42.848;23.034;2023-07-22T13:55:10;94639.44;;;35.12;37.19
7990;BME280;4040;42.848;23.034;2023-07-22T14:00:59;94642.06;;;35.10;37.14
7990;BME280;4040;42.848;23.034;2023-07-22T14:06:49;94633.88;;;34.97;35.72
7990;BME280;4040;42.848;23.034;2023-07-22T14:12:38;94640.63;;;34.87;38.38
7990;BME280;4040;42.848;23.034;2023-07-22T14:18:26;94652.69;;;35.04;37.85
7990;BME280;4040;42.848;23.034;2023-07-22T14:24:17;94661.09;;;35.04;37.97
7990;BME280;4040;42.848;23.034;2023-07-22T14:30:06;94670.81;;;35.03;38.96
7990;BME280;4040;42.848;23.034;2023-07-22T14:35:55;94663.91;;;35.04;38.94
7990;BME280;4040;42.848;23.034;2023-07-22T14:41:45;94664.16;;;34.76;38.58
7990;BME280;4040;42.848;23.034;2023-07-22T14:47:34;94670.88;;;34.73;40.32
7990;BME280;4040;42.848;23.034;2023-07-22T14:53:23;94681.69;;;34.69;39.99
7990;BME280;4040;42.848;23.034;2023-07-22T14:55:50;94688.97;;;34.72;39.06
7990;BME280;4040;42.848;23.034;2023-07-22T15:01:40;94668.25;;;34.75;40.96
7990;BME280;4040;42.848;23.034;2023-07-22T15:07:29;94677.59;;;34.55;41.41
7990;BME280;4040;42.848;23.034;2023-07-22T15:13:18;94666.38;;;34.63;41.31
7990;BME280;4040;42.848;23.034;2023-07-22T15:19:08;94654.13;;;34.28;44.24
7990;BME280;4040;42.848;23.034;2023-07-22T15:28:29;94670.59;;;33.66;46.46
7990;BME280;4040;42.848;23.034;2023-07-22T15:34:20;94690.72;;;33.22;47.84
7990;BME280;4040;42.848;23.034;2023-07-22T15:40:09;94686.44;;;32.85;48.21
7990;BME280;4040;42.848;23.034;2023-07-22T15:45:58;94617.25;;;32.56;48.96
7990;BME280;4040;42.848;23.034;2023-07-22T15:51:49;94598.59;;;32.71;49.99
7990;BME280;4040;42.848;23.034;2023-07-22T15:57:38;94628.16;;;32.74;51.10
7990;BME280;4040;42.848;23.034;2023-07-22T16:03:27;94636.44;;;32.59;54.71
7990;BME280;4040;42.848;23.034;2023-07-22T16:09:17;94640.16;;;32.97;55.40
7990;BME280;4040;42.848;23.034;2023-07-22T16:15:07;94627.53;;;33.04;49.90
7990;BME280;4040;42.848;23.034;2023-07-22T16:20:56;94637.53;;;33.27;46.58
7990;BME280;4040;42.848;23.034;2023-07-22T16:30:28;94627.53;;;32.68;46.40
7990;BME280;4040;42.848;23.034;2023-07-22T16:36:17;94624.47;;;32.51;41.87
7990;BME280;4040;42.848;23.034;2023-07-22T16:42:06;94630.00;;;32.44;40.80
7990;BME280;4040;42.848;23.034;2023-07-22T16:47:57;94639.22;;;32.32;44.36
7990;BME280;4040;42.848;23.034;2023-07-22T16:53:45;94649.81;;;32.13;47.63
7990;BME280;4040;42.848;23.034;2023-07-22T16:59:34;94647.31;;;32.02;48.36
7990;BME280;4040;42.848;23.034;2023-07-22T17:05:24;94646.97;;;31.85;50.60
7990;BME280;4040;42.848;23.034;2023-07-22T17:11:13;94656.03;;;31.65;52.40
7990;BME280;4040;42.848;23.034;2023-07-22T17:17:02;94658.03;;;31.44;54.31
7990;BME280;4040;42.848;23.034;2023-07-22T17:22:53;94647.59;;;31.11;50.36
7990;BME280;4040;42.848;23.034;2023-07-22T17:32:44;94681.19;;;30.22;51.31
7990;BME280;4040;42.848;23.034;2023-07-22T17:38:37;94720.47;;;29.81;53.46
7990;BME280;4040;42.848;23.034;2023-07-22T17:44:27;94712.41;;;29.28;55.61
7990;BME280;4040;42.848;23.034;2023-07-22T17:50:17;94724.81;;;29.03;59.71
7990;BME280;4040;42.848;23.034;2023-07-22T17:56:07;94726.22;;;28.67;61.27
7990;BME280;4040;42.848;23.034;2023-07-22T18:01:55;94713.28;;;28.22;64.48
7990;BME280;4040;42.848;23.034;2023-07-22T18:07:45;94699.56;;;27.81;67.01
7990;BME280;4040;42.848;23.034;2023-07-22T18:13:35;94733.00;;;27.83;71.15
7990;BME280;4040;42.848;23.034;2023-07-22T18:19:24;94749.66;;;27.72;72.51
7990;BME280;4040;42.848;23.034;2023-07-22T18:21:52;94757.47;;;27.68;74.94
7990;BME280;4040;42.848;23.034;2023-07-22T18:27:40;94773.44;;;27.51;80.04
7990;BME280;4040;42.848;23.034;2023-07-22T18:30:10;94775.47;;;27.45;83.06
7990;BME280;4040;42.848;23.034;2023-07-22T18:35:58;94776.34;;;27.24;83.97
7990;BME280;4040;42.848;23.034;2023-07-22T18:41:47;94784.69;;;27.07;88.46
7990;BME280;4040;42.848;23.034;2023-07-22T18:47:38;94791.47;;;27.01;89.29
7990;BME280;4040;42.848;23.034;2023-07-22T18:53:26;94810.44;;;26.58;99.08
7990;BME280;4040;42.848;23.034;2023-07-22T18:55:53;94798.59;;;26.41;100.00
7990;BME280;4040;42.848;23.034;2023-07-22T19:01:42;94788.31;;;26.42;100.00
7990;BME280;4040;42.848;23.034;2023-07-22T19:07:33;94795.13;;;26.14;100.00
7990;BME280;4040;42.848;23.034;2023-07-22T19:13:22;94813.13;;;25.76;100.00
7990;BME280;4040;42.848;23.034;2023-07-22T19:19:11;94821.13;;;25.69;100.00
7990;BME280;4040;42.848;23.034;2023-07-22T19:25:01;94817.38;;;25.72;100.00
7990;BME280;4040;42.848;23.034;2023-07-22T19:35:02;94808.88;;;25.17;100.00
7990;BME280;4040;42.848;23.034;2023-07-22T19:41:01;94819.63;;;25.09;100.00
7990;BME280;4040;42.848;23.034;2023-07-22T19:46:50;94829.63;;;25.07;100.00
7990;BME280;4040;42.848;23.034;2023-07-22T19:52:38;94841.53;;;24.82;100.00
7990;BME280;4040;42.848;23.034;2023-07-22T19:58:29;94836.16;;;24.62;100.00
7990;BME280;4040;42.848;23.034;2023-07-22T20:04:17;94835.88;;;24.60;100.00
7990;BME280;4040;42.848;23.034;2023-07-22T20:10:07;94820.34;;;24.57;100.00
7990;BME280;4040;42.848;23.034;2023-07-22T20:15:58;94846.16;;;24.34;100.00
7990;BME280;4040;42.848;23.034;2023-07-22T20:21:46;94834.94;;;24.37;100.00
7990;BME280;4040;42.848;23.034;2023-07-22T20:27:35;94849.47;;;24.07;100.00
7990;BME280;4040;42.848;23.034;2023-07-22T20:37:47;94868.91;;;23.78;100.00
7990;BME280;4040;42.848;23.034;2023-07-22T20:43:36;94867.00;;;23.64;100.00
7990;BME280;4040;42.848;23.034;2023-07-22T20:46:03;94865.91;;;23.56;100.00
7990;BME280;4040;42.848;23.034;2023-07-22T20:51:52;94851.69;;;23.58;100.00
7990;BME280;4040;42.848;23.034;2023-07-22T20:57:42;94863.19;;;23.36;100.00
7990;BME280;4040;42.848;23.034;2023-07-22T21:00:10;94863.59;;;23.29;100.00
7990;BME280;4040;42.848;23.034;2023-07-22T21:05:59;94861.94;;;23.17;100.00
7990;BME280;4040;42.848;23.034;2023-07-22T21:11:48;94883.72;;;22.86;100.00
7990;BME280;4040;42.848;23.034;2023-07-22T21:17:38;94880.44;;;22.82;100.00
7990;BME280;4040;42.848;23.034;2023-07-22T21:23:26;94884.84;;;22.45;100.00
7990;BME280;4040;42.848;23.034;2023-07-22T21:25:54;94886.34;;;22.32;100.00
7990;BME280;4040;42.848;23.034;2023-07-22T21:31:43;94886.16;;;22.21;100.00
7990;BME280;4040;42.848;23.034;2023-07-22T21:37:33;94868.97;;;22.06;100.00
7990;BME280;4040;42.848;23.034;2023-07-22T21:43:22;94863.75;;;21.93;100.00
7990;BME280;4040;42.848;23.034;2023-07-22T21:49:10;94850.16;;;21.70;100.00
7990;BME280;4040;42.848;23.034;2023-07-22T21:51:37;94857.25;;;21.76;100.00
7990;BME280;4040;42.848;23.034;2023-07-22T21:57:30;94866.69;;;21.75;100.00
7990;BME280;4040;42.848;23.034;2023-07-22T22:08:30;94881.38;;;21.63;100.00
7990;BME280;4040;42.848;23.034;2023-07-22T22:14:19;94879.66;;;21.51;100.00
7990;BME280;4040;42.848;23.034;2023-07-22T22:20:08;94884.56;;;21.47;100.00
7990;BME280;4040;42.848;23.034;2023-07-22T22:25:58;94895.53;;;21.47;100.00
7990;BME280;4040;42.848;23.034;2023-07-22T22:31:47;94901.09;;;21.38;100.00
7990;BME280;4040;42.848;23.034;2023-07-22T22:37:36;94901.75;;;21.33;100.00
7990;BME280;4040;42.848;23.034;2023-07-22T22:43:26;94934.38;;;21.22;100.00
7990;BME280;4040;42.848;23.034;2023-07-22T22:49:14;94917.69;;;21.11;100.00
7990;BME280;4040;42.848;23.034;2023-07-22T22:55:04;94926.50;;;21.15;100.00
7990;BME280;4040;42.848;23.034;2023-07-22T23:00:54;94920.38;;;21.20;100.00
7990;BME280;4040;42.848;23.034;2023-07-22T23:03:21;94927.44;;;21.12;100.00
7990;BME280;4040;42.848;23.034;2023-07-22T23:09:10;94928.06;;;21.07;100.00
7990;BME280;4040;42.848;23.034;2023-07-22T23:15:00;94947.44;;;20.95;100.00
7990;BME280;4040;42.848;23.034;2023-07-22T23:20:51;94943.06;;;20.88;100.00
7990;BME280;4040;42.848;23.034;2023-07-22T23:26:40;94929.75;;;20.73;100.00
7990;BME280;4040;42.848;23.034;2023-07-22T23:32:28;94930.09;;;20.66;100.00
7990;BME280;4040;42.848;23.034;2023-07-22T23:38:18;94919.78;;;20.61;100.00
7990;BME280;4040;42.848;23.034;2023-07-22T23:40:46;94935.25;;;20.64;100.00
7990;BME280;4040;42.848;23.034;2023-07-22T23:46:35;94922.50;;;20.61;100.00
7990;BME280;4040;42.848;23.034;2023-07-22T23:52:24;94933.78;;;20.54;100.00
7990;BME280;4040;42.848;23.034;2023-07-22T23:58:14;94958.13;;;20.52;100.00
